Flight Track Log - Related Links

Times and Time Zones

All times are in EDT time to prevent confusion due to time zone crossing. See the ACA831 flight status page for this flight to view local times or setup timezone preferences in your user account.

Time Position Orientation Groundspeed Altitude Reporting Facility
EDT Latitude Longitude Course Direction KTS MPH feet Rate Location/Type
Sun 04:10:37 PM 45.4590 -73.7400 224° Southwest 153 176 800  Level FlightAware ADS-B
Sun 04:11:07 PM 45.4410 -73.7630 222° Southwest 181 208 2,100 2,400 Climbing FlightAware ADS-B
Sun 04:11:32 PM 45.4250 -73.7840 223° Southwest 219 252 3,000 2,836 Climbing FlightAware ADS-B
Sun 04:12:02 PM 45.4000 -73.8160 222° Southwest 251 289 4,700 3,100 Climbing FlightAware ADS-B
Sun 04:12:32 PM 45.3740 -73.8540 226° Southwest 269 310 6,100 2,073 Climbing FlightAware ADS-B
Sun 04:12:57 PM 45.3660 -73.8970 255° West 274 315 6,600 764 Climbing FlightAware ADS-B
Sun 04:13:27 PM 45.3720 -73.9510 279° West 273 314 6,800 218 Climbing FlightAware ADS-B
Sun 04:13:52 PM 45.3770 -73.9920 280° West 273 314 6,800  Level FlightAware ADS-B
Sun 04:14:22 PM 45.3830 -74.0450 279° West 271 312 6,800  Level FlightAware ADS-B
Sun 04:14:52 PM 45.3870 -74.0990 276° West 271 312 6,800 327 Level FlightAware ADS-B
Sun 04:15:17 PM 45.3910 -74.1430 277° West 273 314 7,100 2,291 Climbing FlightAware ADS-B
Sun 04:15:47 PM 45.3960 -74.1970 278° West 276 318 8,900 3,171 Climbing FlightAware ADS-B
Sun 04:16:27 PM 45.4020 -74.2740 276° West 318 366 10,800 3,176 Climbing FlightAware ADS-B
Sun 04:17:12 PM 45.4120 -74.3730 278° West 352 405 13,400 3,600 Climbing FlightAware ADS-B
Sun 04:17:52 PM 45.4110 -74.4660 269° West 366 421 15,900 3,675 Climbing FlightAware ADS-B
Sun 04:18:32 PM 45.3950 -74.5610 257° West 380 437 18,300 3,529 Climbing FlightAware ADS-B
Sun 04:19:17 PM 45.3750 -74.6780 256° West 395 455 20,900 3,247 Climbing FlightAware ADS-B
Sun 04:19:57 PM 45.3580 -74.7780 256° West 408 470 22,900 2,965 Climbing FlightAware ADS-B
Sun 04:20:42 PM 45.3380 -74.8940 256° West 416 479 25,100 2,733 Climbing FlightAware ADS-B
Sun 04:21:27 PM 45.3170 -75.0180 257° West 431 496 27,000 2,471 Climbing FlightAware ADS-B
Sun 04:22:07 PM 45.2980 -75.1290 256° West 439 505 28,600 2,625 Climbing FlightAware ADS-B
Sun 04:22:47 PM 45.2780 -75.2410 256° West 438 504 30,500 2,824 Climbing FlightAware ADS-B
Sun 04:23:32 PM 45.2570 -75.3620 256° West 430 495 32,600 2,400 Climbing FlightAware ADS-B
Sun 04:24:12 PM 45.2380 -75.4720 256° West 430 495 33,900 988 Climbing FlightAware ADS-B
Sun 04:24:57 PM 45.2150 -75.5980 256° West 434 499 34,000 71 Climbing FlightAware ADS-B
Sun 04:25:37 PM 45.1950 -75.7090 256° West 433 498 34,000  Level FlightAware ADS-B
Sun 04:26:17 PM 45.1760 -75.8150 256° West 432 497 34,000  Level FlightAware ADS-B
Sun 04:27:02 PM 45.1550 -75.9340 256° West 432 497 34,000  Level FlightAware ADS-B
Sun 04:27:42 PM 45.1340 -76.0480 255° West 432 497 34,000  Level FlightAware ADS-B
Sun 04:28:27 PM 45.1140 -76.1560 255° West 430 495 34,000  Level FlightAware ADS-B
Sun 04:29:12 PM 45.0667 -76.2500 255° West 430 495 34,000  Level Toronto Center
Sun 04:30:12 PM 45.0000 -76.4000 238° Southwest 430 495 34,000  Level Toronto Center
Sun 04:31:12 PM 44.9333 -76.5500 238° Southwest 430 495 34,000  Level Toronto Center
Sun 04:33:12 PM 44.8333 -76.8500 245° Southwest 430 495 34,000  Level Toronto Center
Sun 04:34:12 PM 44.7667 -77.0000 238° Southwest 430 495 34,000 -50 Level Toronto Center
Sun 04:35:12 PM 44.7167 -77.1167 239° Southwest 430 495 33,900 -967 Descending Toronto Center
Sun 04:37:12 PM 44.6167 -77.4000 244° Southwest 400 460 31,100 -1,600 Descending Toronto Center
Sun 04:38:12 PM 44.5500 -77.5500 238° Southwest 390 449 29,100 -1,900 Descending Toronto Center
Sun 04:39:12 PM 44.5000 -77.6667 239° Southwest 380 437 27,300 -1,800 Descending Toronto Center
Sun 04:40:12 PM 44.4500 -77.7833 239° Southwest 370 426 25,500 -2,400 Descending Toronto Center
Sun 04:41:12 PM 44.4000 -77.9000 239° Southwest 370 426 22,500 -2,550 Descending Toronto Center
Sun 04:42:12 PM 44.3333 -78.0500 238° Southwest 390 449 20,400 -1,950 Descending Toronto Center
Sun 04:43:12 PM 44.2833 -78.1667 239° Southwest 380 437 18,600 -1,650 Descending Toronto Center
Sun 04:44:12 PM 44.2333 -78.2833 239° Southwest 370 426 17,100 -1,950 Descending Toronto Center
Sun 04:45:12 PM 44.1833 -78.4167 242° Southwest 360 414 14,700 -2,150 Descending Toronto Center
Sun 04:46:12 PM 44.1500 -78.5333 248° West 370 426 12,800 -1,950 Descending Toronto Center
Sun 04:47:12 PM 44.0833 -78.6500 232° Southwest 360 414 10,800 -1,400 Descending Toronto Center
Sun 04:48:12 PM 44.0500 -78.7667 248° West 340 391 10,000 -900 Descending Toronto Center
Sun 04:49:12 PM 44.0000 -78.8500 230° Southwest 280 322 9,000 -1,100 Descending Toronto Center
Sun 04:50:12 PM 43.9500 -78.9167 224° Southwest 250 288 7,800 -900 Descending Toronto Center
Sun 04:51:12 PM 43.9000 -78.9833 224° Southwest 250 288 7,200 -400 Descending Toronto Center
Sun 04:52:12 PM 43.8667 -79.0833 245° Southwest 250 288 7,000 -600 Descending Toronto Center
Sun 04:53:12 PM 43.8500 -79.1667 255° West 250 288 6,000 -1,050 Descending Toronto Center
Sun 04:54:12 PM 43.8167 -79.2333 235° Southwest 250 288 4,900 -900 Descending Toronto Center
Sun 04:55:12 PM 43.8000 -79.3333 257° West 240 276 4,200 -650 Descending Toronto Center
Sun 04:56:12 PM 43.7667 -79.4333 245° Southwest 230 265 3,600 -600 Descending Toronto Center

Login

Don't have an account? Register now (free) for customized features, flight alerts, and more!